sensor_id;sensor_type;location;lat;lon;timestamp;pressure;altitude;pressure_sealevel;temperature;humidity
72308;BME280;60257;42.638;23.376;2023-04-08T00:00:00;94670.38;;;4.56;64.31
72308;BME280;60257;42.638;23.376;2023-04-08T00:02:26;94670.78;;;4.50;64.53
72308;BME280;60257;42.638;23.376;2023-04-08T00:04:51;94671.28;;;4.52;64.25
72308;BME280;60257;42.638;23.376;2023-04-08T00:07:17;94663.50;;;4.59;63.77
72308;BME280;60257;42.638;23.376;2023-04-08T00:09:42;94667.38;;;4.67;63.59
72308;BME280;60257;42.638;23.376;2023-04-08T00:12:08;94673.81;;;4.71;63.65
72308;BME280;60257;42.638;23.376;2023-04-08T00:14:33;94670.81;;;4.72;63.29
72308;BME280;60257;42.638;23.376;2023-04-08T00:16:59;94651.78;;;4.50;63.30
72308;BME280;60257;42.638;23.376;2023-04-08T00:19:25;94656.91;;;4.51;63.59
72308;BME280;60257;42.638;23.376;2023-04-08T00:21:50;94674.56;;;4.62;63.59
72308;BME280;60257;42.638;23.376;2023-04-08T00:24:17;94685.72;;;4.61;63.81
72308;BME280;60257;42.638;23.376;2023-04-08T00:26:43;94674.56;;;4.62;64.02
72308;BME280;60257;42.638;23.376;2023-04-08T00:29:08;94682.53;;;4.59;64.46
72308;BME280;60257;42.638;23.376;2023-04-08T00:31:35;94684.69;;;4.48;65.11
72308;BME280;60257;42.638;23.376;2023-04-08T00:34:00;94679.56;;;4.47;65.11
72308;BME280;60257;42.638;23.376;2023-04-08T00:36:26;94685.66;;;4.52;64.67
72308;BME280;60257;42.638;23.376;2023-04-08T00:38:51;94681.53;;;4.55;64.09
72308;BME280;60257;42.638;23.376;2023-04-08T00:41:17;94669.31;;;4.44;63.96
72308;BME280;60257;42.638;23.376;2023-04-08T00:43:42;94684.31;;;4.41;64.30
72308;BME280;60257;42.638;23.376;2023-04-08T00:46:08;94682.81;;;4.35;64.68
72308;BME280;60257;42.638;23.376;2023-04-08T00:48:34;94687.34;;;4.40;64.60
72308;BME280;60257;42.638;23.376;2023-04-08T00:50:59;94686.84;;;4.38;64.86
72308;BME280;60257;42.638;23.376;2023-04-08T00:53:25;94694.38;;;4.41;64.88
72308;BME280;60257;42.638;23.376;2023-04-08T00:55:50;94686.34;;;4.36;65.38
72308;BME280;60257;42.638;23.376;2023-04-08T00:58:16;94692.28;;;4.38;65.16
72308;BME280;60257;42.638;23.376;2023-04-08T01:00:48;94677.50;;;4.30;65.18
72308;BME280;60257;42.638;23.376;2023-04-08T01:03:38;94686.03;;;4.37;65.04
72308;BME280;60257;42.638;23.376;2023-04-08T01:06:18;94685.66;;;4.30;65.30
72308;BME280;60257;42.638;23.376;2023-04-08T01:08:47;94689.19;;;4.31;65.15
72308;BME280;60257;42.638;23.376;2023-04-08T01:11:14;94640.13;;;3.91;65.14
72308;BME280;60257;42.638;23.376;2023-04-08T01:13:41;94679.94;;;4.32;64.69
72308;BME280;60257;42.638;23.376;2023-04-08T01:16:10;94683.81;;;4.39;64.43
72308;BME280;60257;42.638;23.376;2023-04-08T01:18:37;94674.78;;;4.30;64.07
72308;BME280;60257;42.638;23.376;2023-04-08T01:21:04;94665.97;;;4.24;63.74
72308;BME280;60257;42.638;23.376;2023-04-08T01:23:42;94691.66;;;4.41;63.58
72308;BME280;60257;42.638;23.376;2023-04-08T01:26:12;94682.06;;;4.43;63.55
72308;BME280;60257;42.638;23.376;2023-04-08T01:28:48;94683.69;;;4.44;63.49
72308;BME280;60257;42.638;23.376;2023-04-08T01:31:15;94684.31;;;4.41;63.74
72308;BME280;60257;42.638;23.376;2023-04-08T01:33:42;94680.97;;;4.44;63.90
72308;BME280;60257;42.638;23.376;2023-04-08T01:36:09;94687.22;;;4.45;64.00
72308;BME280;60257;42.638;23.376;2023-04-08T01:38:35;94684.31;;;4.41;64.12
72308;BME280;60257;42.638;23.376;2023-04-08T01:41:03;94689.63;;;4.46;64.19
72308;BME280;60257;42.638;23.376;2023-04-08T01:43:30;94688.22;;;4.49;64.10
72308;BME280;60257;42.638;23.376;2023-04-08T01:45:59;94679.50;;;4.38;64.30
72308;BME280;60257;42.638;23.376;2023-04-08T01:48:25;94688.81;;;4.46;64.28
72308;BME280;60257;42.638;23.376;2023-04-08T01:50:53;94688.53;;;4.47;64.19
72308;BME280;60257;42.638;23.376;2023-04-08T01:53:20;94686.34;;;4.58;63.98
72308;BME280;60257;42.638;23.376;2023-04-08T01:55:50;94689.56;;;4.60;63.90
72308;BME280;60257;42.638;23.376;2023-04-08T01:58:19;94694.19;;;4.59;64.21
72308;BME280;60257;42.638;23.376;2023-04-08T02:00:45;94691.16;;;4.61;63.86
72308;BME280;60257;42.638;23.376;2023-04-08T02:03:12;94697.53;;;4.56;63.83
72308;BME280;60257;42.638;23.376;2023-04-08T02:05:39;94705.63;;;4.48;64.58
72308;BME280;60257;42.638;23.376;2023-04-08T02:08:05;94702.09;;;4.47;64.43
72308;BME280;60257;42.638;23.376;2023-04-08T02:10:31;94700.41;;;4.38;64.11
72308;BME280;60257;42.638;23.376;2023-04-08T02:12:56;94706.03;;;4.41;64.02
72308;BME280;60257;42.638;23.376;2023-04-08T02:15:23;94704.53;;;4.35;63.42
72308;BME280;60257;42.638;23.376;2023-04-08T02:17:54;94712.06;;;4.38;63.28
72308;BME280;60257;42.638;23.376;2023-04-08T02:20:42;94706.34;;;4.40;63.03
72308;BME280;60257;42.638;23.376;2023-04-08T02:23:23;94692.56;;;4.36;63.21
72308;BME280;60257;42.638;23.376;2023-04-08T02:25:52;94714.19;;;4.41;63.10
72308;BME280;60257;42.638;23.376;2023-04-08T02:28:20;94718.00;;;4.40;63.16
72308;BME280;60257;42.638;23.376;2023-04-08T02:30:51;94707.31;;;4.44;63.31
72308;BME280;60257;42.638;23.376;2023-04-08T02:33:19;94702.19;;;4.42;62.97
72308;BME280;60257;42.638;23.376;2023-04-08T02:35:47;94709.53;;;4.42;63.23
72308;BME280;60257;42.638;23.376;2023-04-08T02:38:13;94706.50;;;4.43;63.05
72308;BME280;60257;42.638;23.376;2023-04-08T02:40:38;94708.13;;;4.44;63.10
72308;BME280;60257;42.638;23.376;2023-04-08T02:43:04;94716.09;;;4.41;63.30
72308;BME280;60257;42.638;23.376;2023-04-08T02:45:32;94703.13;;;4.38;63.32
72308;BME280;60257;42.638;23.376;2023-04-08T02:48:00;94704.09;;;4.42;63.46
72308;BME280;60257;42.638;23.376;2023-04-08T02:50:26;94694.69;;;4.39;63.34
72308;BME280;60257;42.638;23.376;2023-04-08T02:52:51;94705.69;;;4.56;63.00
72308;BME280;60257;42.638;23.376;2023-04-08T02:55:16;94709.94;;;4.49;63.01
72308;BME280;60257;42.638;23.376;2023-04-08T02:57:42;94707.81;;;4.46;63.32
72308;BME280;60257;42.638;23.376;2023-04-08T03:00:08;94708.94;;;4.45;63.34
72308;BME280;60257;42.638;23.376;2023-04-08T03:02:34;94711.34;;;4.46;63.25
72308;BME280;60257;42.638;23.376;2023-04-08T03:05:00;94704.44;;;4.40;63.29
72308;BME280;60257;42.638;23.376;2023-04-08T03:07:25;94715.47;;;4.44;63.40
72308;BME280;60257;42.638;23.376;2023-04-08T03:09:51;94708.13;;;4.44;63.16
72308;BME280;60257;42.638;23.376;2023-04-08T03:12:17;94715.78;;;4.42;63.36
72308;BME280;60257;42.638;23.376;2023-04-08T03:14:42;94714.50;;;4.40;62.89
72308;BME280;60257;42.638;23.376;2023-04-08T03:17:07;94703.38;;;4.50;62.80
72308;BME280;60257;42.638;23.376;2023-04-08T03:19:33;94706.41;;;4.48;62.59
72308;BME280;60257;42.638;23.376;2023-04-08T03:21:58;94706.72;;;4.47;62.42
72308;BME280;60257;42.638;23.376;2023-04-08T03:24:24;94706.59;;;4.52;62.47
72308;BME280;60257;42.638;23.376;2023-04-08T03:26:49;94690.94;;;4.49;62.21
72308;BME280;60257;42.638;23.376;2023-04-08T03:29:15;94711.41;;;4.55;62.53
72308;BME280;60257;42.638;23.376;2023-04-08T03:31:40;94708.94;;;4.45;62.71
72308;BME280;60257;42.638;23.376;2023-04-08T03:34:06;94707.75;;;4.37;63.05
72308;BME280;60257;42.638;23.376;2023-04-08T03:36:31;94700.16;;;4.25;62.88
72308;BME280;60257;42.638;23.376;2023-04-08T03:38:57;94711.84;;;4.48;62.96
72308;BME280;60257;42.638;23.376;2023-04-08T03:41:22;94716.94;;;4.50;62.70
72308;BME280;60257;42.638;23.376;2023-04-08T03:43:48;94707.16;;;4.40;63.13
72308;BME280;60257;42.638;23.376;2023-04-08T03:46:13;94712.44;;;4.45;63.38
72308;BME280;60257;42.638;23.376;2023-04-08T03:48:39;94710.72;;;4.49;62.98
72308;BME280;60257;42.638;23.376;2023-04-08T03:51:04;94717.69;;;4.42;63.41
72308;BME280;60257;42.638;23.376;2023-04-08T03:53:30;94721.31;;;4.37;64.03
72308;BME280;60257;42.638;23.376;2023-04-08T03:55:56;94706.13;;;4.36;63.94
72308;BME280;60257;42.638;23.376;2023-04-08T03:58:22;94706.44;;;4.35;64.39
72308;BME280;60257;42.638;23.376;2023-04-08T04:00:48;94714.19;;;4.41;64.24
72308;BME280;60257;42.638;23.376;2023-04-08T04:03:13;94717.31;;;4.35;64.61
72308;BME280;60257;42.638;23.376;2023-04-08T04:05:39;94712.19;;;4.33;64.91
72308;BME280;60257;42.638;23.376;2023-04-08T04:08:05;94716.69;;;4.38;64.41
72308;BME280;60257;42.638;23.376;2023-04-08T04:10:31;94709.38;;;4.38;64.36
72308;BME280;60257;42.638;23.376;2023-04-08T04:12:56;94707.16;;;4.40;64.26
72308;BME280;60257;42.638;23.376;2023-04-08T04:15:22;94699.31;;;4.39;64.38
72308;BME280;60257;42.638;23.376;2023-04-08T04:17:48;94711.66;;;4.45;64.08
72308;BME280;60257;42.638;23.376;2023-04-08T04:20:16;94718.59;;;4.37;64.46
72308;BME280;60257;42.638;23.376;2023-04-08T04:22:41;94723.53;;;4.35;65.00
72308;BME280;60257;42.638;23.376;2023-04-08T04:25:07;94718.91;;;4.36;64.86
72308;BME280;60257;42.638;23.376;2023-04-08T04:27:33;94721.84;;;4.39;64.91
72308;BME280;60257;42.638;23.376;2023-04-08T04:29:59;94721.53;;;4.41;64.58
72308;BME280;60257;42.638;23.376;2023-04-08T04:32:25;94711.28;;;4.38;64.48
72308;BME280;60257;42.638;23.376;2023-04-08T04:34:51;94715.16;;;4.45;64.12
72308;BME280;60257;42.638;23.376;2023-04-08T04:37:16;94723.31;;;4.45;64.29
72308;BME280;60257;42.638;23.376;2023-04-08T04:39:42;94722.34;;;4.41;64.55
72308;BME280;60257;42.638;23.376;2023-04-08T04:42:08;94731.97;;;4.47;64.16
72308;BME280;60257;42.638;23.376;2023-04-08T04:44:33;94724.63;;;4.48;64.22
72308;BME280;60257;42.638;23.376;2023-04-08T04:46:59;94701.34;;;4.33;64.40
72308;BME280;60257;42.638;23.376;2023-04-08T04:49:24;94718.38;;;4.47;64.12
72308;BME280;60257;42.638;23.376;2023-04-08T04:51:50;94715.53;;;4.52;64.07
72308;BME280;60257;42.638;23.376;2023-04-08T04:54:15;94725.38;;;4.62;64.15
72308;BME280;60257;42.638;23.376;2023-04-08T04:56:41;94717.66;;;4.55;64.30
72308;BME280;60257;42.638;23.376;2023-04-08T04:59:06;94734.13;;;4.59;64.48
72308;BME280;60257;42.638;23.376;2023-04-08T05:01:33;94726.59;;;4.56;64.48
72308;BME280;60257;42.638;23.376;2023-04-08T05:03:58;94736.84;;;4.59;64.97
72308;BME280;60257;42.638;23.376;2023-04-08T05:06:24;94724.88;;;4.60;64.80
72308;BME280;60257;42.638;23.376;2023-04-08T05:08:51;94739.38;;;4.55;65.14
72308;BME280;60257;42.638;23.376;2023-04-08T05:11:17;94730.38;;;4.69;64.80
72308;BME280;60257;42.638;23.376;2023-04-08T05:13:43;94736.16;;;4.76;64.67
72308;BME280;60257;42.638;23.376;2023-04-08T05:16:09;94727.47;;;4.87;64.70
72308;BME280;60257;42.638;23.376;2023-04-08T05:18:35;94720.31;;;4.91;64.16
72308;BME280;60257;42.638;23.376;2023-04-08T05:21:01;94728.88;;;5.07;64.07
72308;BME280;60257;42.638;23.376;2023-04-08T05:23:27;94723.50;;;5.16;63.54
72308;BME280;60257;42.638;23.376;2023-04-08T05:25:52;94718.75;;;5.30;62.94
72308;BME280;60257;42.638;23.376;2023-04-08T05:28:18;94726.63;;;5.31;62.19
72308;BME280;60257;42.638;23.376;2023-04-08T05:30:50;94733.81;;;5.36;62.38
72308;BME280;60257;42.638;23.376;2023-04-08T05:33:16;94740.13;;;5.45;61.92
72308;BME280;60257;42.638;23.376;2023-04-08T05:35:42;94733.75;;;5.58;62.24
72308;BME280;60257;42.638;23.376;2023-04-08T05:38:07;94732.53;;;5.73;61.82
72308;BME280;60257;42.638;23.376;2023-04-08T05:40:33;94731.38;;;5.88;60.90
72308;BME280;60257;42.638;23.376;2023-04-08T05:42:59;94724.69;;;6.02;60.35
72308;BME280;60257;42.638;23.376;2023-04-08T05:45:24;94718.44;;;6.10;59.94
72308;BME280;60257;42.638;23.376;2023-04-08T05:47:50;94727.25;;;6.16;59.87
72308;BME280;60257;42.638;23.376;2023-04-08T05:50:15;94725.69;;;6.24;59.33
72308;BME280;60257;42.638;23.376;2023-04-08T05:52:42;94713.00;;;6.28;59.36
72308;BME280;60257;42.638;23.376;2023-04-08T05:55:09;94716.72;;;6.40;58.82
72308;BME280;60257;42.638;23.376;2023-04-08T05:57:35;94719.78;;;6.47;58.58
72308;BME280;60257;42.638;23.376;2023-04-08T06:00:01;94718.50;;;6.53;57.82
72308;BME280;60257;42.638;23.376;2023-04-08T06:02:27;94718.31;;;6.58;57.69
72308;BME280;60257;42.638;23.376;2023-04-08T06:04:52;94719.59;;;6.52;57.42
72308;BME280;60257;42.638;23.376;2023-04-08T06:07:18;94721.53;;;6.61;57.90
72308;BME280;60257;42.638;23.376;2023-04-08T06:09:43;94725.06;;;6.52;57.66
72308;BME280;60257;42.638;23.376;2023-04-08T06:12:09;94716.75;;;6.49;58.05
72308;BME280;60257;42.638;23.376;2023-04-08T06:14:35;94714.13;;;6.35;57.99
72308;BME280;60257;42.638;23.376;2023-04-08T06:17:00;94718.13;;;6.21;57.97
72308;BME280;60257;42.638;23.376;2023-04-08T06:19:26;94706.94;;;6.22;57.57
72308;BME280;60257;42.638;23.376;2023-04-08T06:21:51;94717.66;;;6.27;57.74
72308;BME280;60257;42.638;23.376;2023-04-08T06:24:22;94722.16;;;6.32;57.74
72308;BME280;60257;42.638;23.376;2023-04-08T06:26:48;94718.31;;;6.33;58.15
72308;BME280;60257;42.638;23.376;2023-04-08T06:29:14;94716.53;;;6.28;58.27
72308;BME280;60257;42.638;23.376;2023-04-08T06:31:39;94727.78;;;6.44;58.33
72308;BME280;60257;42.638;23.376;2023-04-08T06:34:05;94724.56;;;6.59;58.68
72308;BME280;60257;42.638;23.376;2023-04-08T06:36:31;94719.00;;;6.73;58.76
72308;BME280;60257;42.638;23.376;2023-04-08T06:38:56;94726.00;;;6.91;58.43
72308;BME280;60257;42.638;23.376;2023-04-08T06:41:22;94725.69;;;7.01;58.65
72308;BME280;60257;42.638;23.376;2023-04-08T06:43:47;94730.31;;;7.18;58.62
72308;BME280;60257;42.638;23.376;2023-04-08T06:46:12;94702.56;;;7.07;57.81
72308;BME280;60257;42.638;23.376;2023-04-08T06:48:38;94722.13;;;7.18;57.93
72308;BME280;60257;42.638;23.376;2023-04-08T06:51:04;94718.94;;;7.16;58.62
72308;BME280;60257;42.638;23.376;2023-04-08T06:53:31;94728.38;;;7.27;57.96
72308;BME280;60257;42.638;23.376;2023-04-08T06:55:58;94717.63;;;7.22;57.90
72308;BME280;60257;42.638;23.376;2023-04-08T06:58:23;94725.66;;;7.27;57.94
72308;BME280;60257;42.638;23.376;2023-04-08T07:00:49;94724.66;;;7.31;57.32
72308;BME280;60257;42.638;23.376;2023-04-08T07:03:14;94725.28;;;7.37;57.52
72308;BME280;60257;42.638;23.376;2023-04-08T07:05:40;94724.63;;;7.49;56.87
72308;BME280;60257;42.638;23.376;2023-04-08T07:08:06;94729.59;;;7.47;57.25
72308;BME280;60257;42.638;23.376;2023-04-08T07:10:33;94723.81;;;7.57;57.59
72308;BME280;60257;42.638;23.376;2023-04-08T07:12:59;94727.16;;;7.62;56.82
72308;BME280;60257;42.638;23.376;2023-04-08T07:15:25;94730.34;;;7.64;57.00
72308;BME280;60257;42.638;23.376;2023-04-08T07:17:50;94734.69;;;7.65;56.92
72308;BME280;60257;42.638;23.376;2023-04-08T07:20:16;94732.38;;;7.76;56.72
72308;BME280;60257;42.638;23.376;2023-04-08T07:22:42;94732.34;;;7.85;56.32
72308;BME280;60257;42.638;23.376;2023-04-08T07:25:08;94740.69;;;7.88;56.51
72308;BME280;60257;42.638;23.376;2023-04-08T07:27:34;94738.53;;;8.02;56.58
72308;BME280;60257;42.638;23.376;2023-04-08T07:29:59;94736.38;;;8.17;56.68
72308;BME280;60257;42.638;23.376;2023-04-08T07:32:25;94735.59;;;8.45;55.97
72308;BME280;60257;42.638;23.376;2023-04-08T07:34:51;94742.59;;;8.76;55.35
72308;BME280;60257;42.638;23.376;2023-04-08T07:37:17;94733.13;;;8.94;54.60
72308;BME280;60257;42.638;23.376;2023-04-08T07:39:42;94733.94;;;8.95;54.37
72308;BME280;60257;42.638;23.376;2023-04-08T07:42:08;94736.34;;;8.96;53.80
72308;BME280;60257;42.638;23.376;2023-04-08T07:44:34;94734.00;;;8.86;54.10
72308;BME280;60257;42.638;23.376;2023-04-08T07:47:00;94742.06;;;9.03;53.94
72308;BME280;60257;42.638;23.376;2023-04-08T07:49:25;94747.88;;;9.02;53.85
72308;BME280;60257;42.638;23.376;2023-04-08T07:51:51;94739.88;;;8.97;53.33
72308;BME280;60257;42.638;23.376;2023-04-08T07:54:17;94752.41;;;9.18;52.89
72308;BME280;60257;42.638;23.376;2023-04-08T07:56:43;94748.09;;;9.30;52.78
72308;BME280;60257;42.638;23.376;2023-04-08T07:59:11;94750.91;;;9.54;52.12
72308;BME280;60257;42.638;23.376;2023-04-08T08:01:37;94751.13;;;9.49;51.81
72308;BME280;60257;42.638;23.376;2023-04-08T08:04:03;94764.16;;;9.52;51.68
72308;BME280;60257;42.638;23.376;2023-04-08T08:06:29;94761.59;;;9.35;51.48
72308;BME280;60257;42.638;23.376;2023-04-08T08:08:56;94755.09;;;9.39;51.69
72308;BME280;60257;42.638;23.376;2023-04-08T08:11:22;94760.38;;;9.44;52.03
72308;BME280;60257;42.638;23.376;2023-04-08T08:13:47;94762.84;;;9.82;51.05
72308;BME280;60257;42.638;23.376;2023-04-08T08:16:13;94761.59;;;9.80;50.51
72308;BME280;60257;42.638;23.376;2023-04-08T08:18:39;94760.88;;;9.71;50.38
72308;BME280;60257;42.638;23.376;2023-04-08T08:21:06;94762.91;;;9.61;50.58
72308;BME280;60257;42.638;23.376;2023-04-08T08:23:32;94764.91;;;9.40;51.01
72308;BME280;60257;42.638;23.376;2023-04-08T08:26:01;94757.31;;;9.58;50.59
72308;BME280;60257;42.638;23.376;2023-04-08T08:28:27;94752.56;;;9.67;50.43
72308;BME280;60257;42.638;23.376;2023-04-08T08:30:53;94770.94;;;9.79;50.20
72308;BME280;60257;42.638;23.376;2023-04-08T08:33:18;94765.34;;;9.75;50.46
72308;BME280;60257;42.638;23.376;2023-04-08T08:35:44;94765.59;;;9.94;50.30
72308;BME280;60257;42.638;23.376;2023-04-08T08:38:09;94770.66;;;10.04;50.02
72308;BME280;60257;42.638;23.376;2023-04-08T08:40:35;94771.88;;;10.07;50.82
72308;BME280;60257;42.638;23.376;2023-04-08T08:43:01;94764.03;;;10.06;50.80
72308;BME280;60257;42.638;23.376;2023-04-08T08:45:27;94766.53;;;10.11;51.06
72308;BME280;60257;42.638;23.376;2023-04-08T08:47:53;94748.97;;;10.12;51.17
72308;BME280;60257;42.638;23.376;2023-04-08T08:50:19;94765.28;;;10.08;51.48
72308;BME280;60257;42.638;23.376;2023-04-08T08:52:54;94766.78;;;10.06;51.86
72308;BME280;60257;42.638;23.376;2023-04-08T08:55:20;94772.34;;;10.09;51.87
72308;BME280;60257;42.638;23.376;2023-04-08T08:57:49;94767.06;;;9.92;52.57
72308;BME280;60257;42.638;23.376;2023-04-08T09:00:16;94781.66;;;9.84;53.21
72308;BME280;60257;42.638;23.376;2023-04-08T09:02:42;94779.50;;;9.77;53.49
72308;BME280;60257;42.638;23.376;2023-04-08T09:05:07;94769.34;;;9.45;54.31
72308;BME280;60257;42.638;23.376;2023-04-08T09:07:37;94772.88;;;9.66;54.33
72308;BME280;60257;42.638;23.376;2023-04-08T09:10:05;94776.22;;;10.08;55.54
72308;BME280;60257;42.638;23.376;2023-04-08T09:12:30;94788.06;;;10.33;56.22
72308;BME280;60257;42.638;23.376;2023-04-08T09:15:07;94782.59;;;10.45;53.25
72308;BME280;60257;42.638;23.376;2023-04-08T09:17:37;94778.69;;;10.46;54.65
72308;BME280;60257;42.638;23.376;2023-04-08T09:20:09;94780.97;;;10.56;53.82
72308;BME280;60257;42.638;23.376;2023-04-08T09:22:55;94784.16;;;10.46;52.25
72308;BME280;60257;42.638;23.376;2023-04-08T09:25:22;94778.69;;;10.58;52.77
72308;BME280;60257;42.638;23.376;2023-04-08T09:27:49;94774.91;;;10.51;52.93
72308;BME280;60257;42.638;23.376;2023-04-08T09:30:16;94770.13;;;10.60;52.36
72308;BME280;60257;42.638;23.376;2023-04-08T09:32:56;94768.72;;;10.54;52.34
72308;BME280;60257;42.638;23.376;2023-04-08T09:35:23;94762.06;;;10.79;51.62
72308;BME280;60257;42.638;23.376;2023-04-08T09:37:49;94771.34;;;10.62;51.83
72308;BME280;60257;42.638;23.376;2023-04-08T09:40:16;94760.88;;;10.28;51.56
72308;BME280;60257;42.638;23.376;2023-04-08T09:42:47;94764.38;;;10.04;52.73
72308;BME280;60257;42.638;23.376;2023-04-08T09:45:16;94747.22;;;9.95;53.09
72308;BME280;60257;42.638;23.376;2023-04-08T09:47:51;94753.28;;;9.88;53.53
72308;BME280;60257;42.638;23.376;2023-04-08T09:50:26;94750.91;;;9.54;53.28
72308;BME280;60257;42.638;23.376;2023-04-08T09:52:56;94761.59;;;9.47;54.77
72308;BME280;60257;42.638;23.376;2023-04-08T09:55:26;94748.94;;;9.42;55.15
72308;BME280;60257;42.638;23.376;2023-04-08T09:58:01;94750.75;;;9.38;54.65
72308;BME280;60257;42.638;23.376;2023-04-08T10:00:33;94746.75;;;9.36;55.03
72308;BME280;60257;42.638;23.376;2023-04-08T10:03:10;94745.81;;;9.64;54.90
72308;BME280;60257;42.638;23.376;2023-04-08T10:05:40;94732.03;;;9.73;53.80
72308;BME280;60257;42.638;23.376;2023-04-08T10:08:06;94735.09;;;9.59;53.97
72308;BME280;60257;42.638;23.376;2023-04-08T10:10:38;94741.13;;;9.65;53.92
72308;BME280;60257;42.638;23.376;2023-04-08T10:13:04;94733.63;;;9.86;53.51
72308;BME280;60257;42.638;23.376;2023-04-08T10:15:32;94740.81;;;9.79;53.23
72308;BME280;60257;42.638;23.376;2023-04-08T10:22:59;94735.69;;;10.01;53.25
72308;BME280;60257;42.638;23.376;2023-04-08T10:25:40;94732.66;;;10.39;52.08
72308;BME280;60257;42.638;23.376;2023-04-08T10:30:41;94742.00;;;10.75;50.67
72308;BME280;60257;42.638;23.376;2023-04-08T10:33:14;94731.44;;;10.89;50.56
72308;BME280;60257;42.638;23.376;2023-04-08T10:35:47;94718.66;;;11.09;50.33
72308;BME280;60257;42.638;23.376;2023-04-08T10:38:13;94721.47;;;11.25;50.85
72308;BME280;60257;42.638;23.376;2023-04-08T10:40:41;94722.19;;;11.65;49.67
72308;BME280;60257;42.638;23.376;2023-04-08T10:43:10;94721.34;;;11.77;48.44
72308;BME280;60257;42.638;23.376;2023-04-08T10:45:37;94728.91;;;11.52;48.35
72308;BME280;60257;42.638;23.376;2023-04-08T10:50:43;94704.19;;;11.24;49.23
72308;BME280;60257;42.638;23.376;2023-04-08T10:53:09;94705.63;;;11.34;48.66
72308;BME280;60257;42.638;23.376;2023-04-08T10:55:35;94708.22;;;11.42;48.49
72308;BME280;60257;42.638;23.376;2023-04-08T10:58:07;94704.22;;;11.68;49.64
72308;BME280;60257;42.638;23.376;2023-04-08T11:00:35;94701.09;;;11.69;49.38
72308;BME280;60257;42.638;23.376;2023-04-08T11:03:09;94691.00;;;11.73;48.84
72308;BME280;60257;42.638;23.376;2023-04-08T11:05:36;94691.50;;;11.63;48.68
72308;BME280;60257;42.638;23.376;2023-04-08T11:08:03;94683.00;;;11.52;48.60
72308;BME280;60257;42.638;23.376;2023-04-08T11:10:29;94690.53;;;11.55;46.56
72308;BME280;60257;42.638;23.376;2023-04-08T11:12:56;94689.84;;;11.31;47.98
72308;BME280;60257;42.638;23.376;2023-04-08T11:15:23;94686.63;;;11.56;47.57
72308;BME280;60257;42.638;23.376;2023-04-08T11:17:50;94667.56;;;11.91;46.64
72308;BME280;60257;42.638;23.376;2023-04-08T11:20:16;94695.44;;;12.25;46.18
72308;BME280;60257;42.638;23.376;2023-04-08T11:22:43;94686.97;;;12.49;47.49
72308;BME280;60257;42.638;23.376;2023-04-08T11:25:10;94681.09;;;12.66;45.87
72308;BME280;60257;42.638;23.376;2023-04-08T11:27:36;94684.19;;;12.65;45.91
72308;BME280;60257;42.638;23.376;2023-04-08T11:30:04;94678.34;;;12.66;45.64
72308;BME280;60257;42.638;23.376;2023-04-08T11:32:31;94677.53;;;12.66;44.51
72308;BME280;60257;42.638;23.376;2023-04-08T11:34:59;94680.00;;;12.71;43.50
72308;BME280;60257;42.638;23.376;2023-04-08T11:37:25;94668.25;;;12.55;43.44
72308;BME280;60257;42.638;23.376;2023-04-08T11:39:53;94673.38;;;12.56;44.34
72308;BME280;60257;42.638;23.376;2023-04-08T11:42:28;94672.19;;;12.73;43.84
72308;BME280;60257;42.638;23.376;2023-04-08T11:44:54;94661.19;;;12.73;43.36
72308;BME280;60257;42.638;23.376;2023-04-08T11:47:19;94658.19;;;12.62;44.40
72308;BME280;60257;42.638;23.376;2023-04-08T11:49:46;94666.53;;;12.31;45.96
72308;BME280;60257;42.638;23.376;2023-04-08T11:52:12;94658.09;;;12.24;45.53
72308;BME280;60257;42.638;23.376;2023-04-08T11:54:41;94667.00;;;12.02;46.42
72308;BME280;60257;42.638;23.376;2023-04-08T11:57:07;94670.84;;;11.97;45.73
72308;BME280;60257;42.638;23.376;2023-04-08T11:59:36;94668.59;;;11.87;45.88
72308;BME280;60257;42.638;23.376;2023-04-08T12:02:02;94654.25;;;11.93;46.86
72308;BME280;60257;42.638;23.376;2023-04-08T12:04:28;94638.53;;;12.10;45.38
72308;BME280;60257;42.638;23.376;2023-04-08T12:06:54;94646.56;;;12.34;46.70
72308;BME280;60257;42.638;23.376;2023-04-08T12:09:20;94640.56;;;12.48;45.87
72308;BME280;60257;42.638;23.376;2023-04-08T12:11:45;94636.41;;;12.54;44.93
72308;BME280;60257;42.638;23.376;2023-04-08T12:14:11;94628.22;;;12.38;45.33
72308;BME280;60257;42.638;23.376;2023-04-08T12:16:36;94632.94;;;12.22;46.10
72308;BME280;60257;42.638;23.376;2023-04-08T12:19:02;94626.16;;;11.84;46.39
72308;BME280;60257;42.638;23.376;2023-04-08T12:21:27;94643.16;;;12.06;46.42
72308;BME280;60257;42.638;23.376;2023-04-08T12:23:53;94636.22;;;12.12;47.27
72308;BME280;60257;42.638;23.376;2023-04-08T12:26:18;94646.75;;;12.25;46.37
72308;BME280;60257;42.638;23.376;2023-04-08T12:28:44;94620.25;;;12.17;45.75
72308;BME280;60257;42.638;23.376;2023-04-08T12:31:10;94645.47;;;12.04;46.86
72308;BME280;60257;42.638;23.376;2023-04-08T12:33:36;94647.88;;;12.05;46.43
72308;BME280;60257;42.638;23.376;2023-04-08T12:36:02;94635.44;;;12.11;46.33
72308;BME280;60257;42.638;23.376;2023-04-08T12:38:27;94626.72;;;12.25;46.10
72308;BME280;60257;42.638;23.376;2023-04-08T12:40:53;94620.16;;;12.29;46.66
72308;BME280;60257;42.638;23.376;2023-04-08T12:43:19;94624.00;;;12.44;46.65
72308;BME280;60257;42.638;23.376;2023-04-08T12:45:45;94619.00;;;12.30;46.78
72308;BME280;60257;42.638;23.376;2023-04-08T12:48:11;94622.91;;;12.49;46.68
72308;BME280;60257;42.638;23.376;2023-04-08T12:50:36;94624.31;;;12.58;46.70
72308;BME280;60257;42.638;23.376;2023-04-08T12:53:02;94620.16;;;12.49;46.55
72308;BME280;60257;42.638;23.376;2023-04-08T12:55:27;94623.25;;;12.28;47.14
72308;BME280;60257;42.638;23.376;2023-04-08T12:57:53;94627.88;;;12.08;47.83
72308;BME280;60257;42.638;23.376;2023-04-08T13:00:18;94618.78;;;12.04;47.75
72308;BME280;60257;42.638;23.376;2023-04-08T13:02:44;94611.03;;;12.10;46.73
72308;BME280;60257;42.638;23.376;2023-04-08T13:05:10;94613.88;;;12.13;46.26